sensor_id;sensor_type;location;lat;lon;timestamp;pressure;altitude;pressure_sealevel;temperature;humidity
71917;BME280;59793;46.506;6.674;2023-03-03T00:00:19;97234.16;;;3.64;68.64
71917;BME280;59793;46.506;6.674;2023-03-03T00:02:44;97238.97;;;3.57;68.42
71917;BME280;59793;46.506;6.674;2023-03-03T00:05:09;97249.59;;;3.47;69.45
71917;BME280;59793;46.506;6.674;2023-03-03T00:07:42;97250.75;;;3.54;68.94
71917;BME280;59793;46.506;6.674;2023-03-03T00:10:07;97240.97;;;3.60;68.76
71917;BME280;59793;46.506;6.674;2023-03-03T00:12:33;97229.72;;;3.51;68.24
71917;BME280;59793;46.506;6.674;2023-03-03T00:14:59;97246.28;;;3.41;69.54
71917;BME280;59793;46.506;6.674;2023-03-03T00:17:27;97219.19;;;3.42;68.56
71917;BME280;59793;46.506;6.674;2023-03-03T00:19:53;97227.19;;;3.46;68.92
71917;BME280;59793;46.506;6.674;2023-03-03T00:22:35;97200.09;;;3.19;68.98
71917;BME280;59793;46.506;6.674;2023-03-03T00:25:28;97235.78;;;3.46;69.12
71917;BME280;59793;46.506;6.674;2023-03-03T00:27:54;97224.13;;;3.44;68.60
71917;BME280;59793;46.506;6.674;2023-03-03T00:30:23;97243.59;;;3.74;68.13
71917;BME280;59793;46.506;6.674;2023-03-03T00:32:50;97243.59;;;3.74;67.95
71917;BME280;59793;46.506;6.674;2023-03-03T00:35:29;97243.97;;;3.81;67.72
71917;BME280;59793;46.506;6.674;2023-03-03T00:38:00;97239.50;;;3.95;67.11
71917;BME280;59793;46.506;6.674;2023-03-03T00:40:32;97234.09;;;3.92;66.96
71917;BME280;59793;46.506;6.674;2023-03-03T00:43:00;97241.25;;;4.00;67.17
71917;BME280;59793;46.506;6.674;2023-03-03T00:45:46;97244.31;;;4.02;67.12
71917;BME280;59793;46.506;6.674;2023-03-03T00:50:47;97229.19;;;3.90;67.26
71917;BME280;59793;46.506;6.674;2023-03-03T00:53:15;97250.84;;;4.13;67.13
71917;BME280;59793;46.506;6.674;2023-03-03T00:55:45;97241.88;;;4.19;66.91
71917;BME280;59793;46.506;6.674;2023-03-03T00:58:10;97242.53;;;4.25;66.67
71917;BME280;59793;46.506;6.674;2023-03-03T01:00:37;97201.56;;;4.03;66.33
71917;BME280;59793;46.506;6.674;2023-03-03T01:03:05;97236.94;;;4.31;66.47
71917;BME280;59793;46.506;6.674;2023-03-03T01:05:31;97174.31;;;3.73;66.37
71917;BME280;59793;46.506;6.674;2023-03-03T01:07:56;97236.63;;;3.97;67.29
71917;BME280;59793;46.506;6.674;2023-03-03T01:10:21;97226.03;;;3.66;67.93
71917;BME280;59793;46.506;6.674;2023-03-03T01:12:47;97229.78;;;3.59;68.20
71917;BME280;59793;46.506;6.674;2023-03-03T01:15:14;97232.00;;;3.39;68.96
71917;BME280;59793;46.506;6.674;2023-03-03T01:17:40;97207.69;;;3.02;69.61
71917;BME280;59793;46.506;6.674;2023-03-03T01:20:08;97228.72;;;3.19;69.87
71917;BME280;59793;46.506;6.674;2023-03-03T01:22:34;97184.91;;;2.80;70.44
71917;BME280;59793;46.506;6.674;2023-03-03T01:25:00;97217.53;;;3.05;70.55
71917;BME280;59793;46.506;6.674;2023-03-03T01:27:28;97252.75;;;3.44;69.46
71917;BME280;59793;46.506;6.674;2023-03-03T01:29:53;97212.94;;;3.29;69.18
71917;BME280;59793;46.506;6.674;2023-03-03T01:32:20;97193.59;;;3.03;69.30
71917;BME280;59793;46.506;6.674;2023-03-03T01:34:46;97234.50;;;3.16;70.63
71917;BME280;59793;46.506;6.674;2023-03-03T01:37:11;97237.94;;;2.98;71.49
71917;BME280;59793;46.506;6.674;2023-03-03T01:39:36;97231.78;;;2.94;71.82
71917;BME280;59793;46.506;6.674;2023-03-03T01:42:02;97248.41;;;3.25;70.65
71917;BME280;59793;46.506;6.674;2023-03-03T01:44:27;97254.59;;;3.57;69.04
71917;BME280;59793;46.506;6.674;2023-03-03T01:49:46;97257.09;;;3.62;68.61
71917;BME280;59793;46.506;6.674;2023-03-03T01:52:32;97253.81;;;3.56;68.95
71917;BME280;59793;46.506;6.674;2023-03-03T01:55:02;97256.16;;;3.72;68.24
71917;BME280;59793;46.506;6.674;2023-03-03T01:57:36;97239.75;;;3.71;67.92
71917;BME280;59793;46.506;6.674;2023-03-03T02:00:04;97237.03;;;3.76;67.75
71917;BME280;59793;46.506;6.674;2023-03-03T02:02:31;97239.31;;;3.92;67.17
71917;BME280;59793;46.506;6.674;2023-03-03T02:04:57;97234.13;;;3.78;67.31
71917;BME280;59793;46.506;6.674;2023-03-03T02:07:24;97230.66;;;3.82;67.28
71917;BME280;59793;46.506;6.674;2023-03-03T02:12:33;97209.63;;;3.10;69.65
71917;BME280;59793;46.506;6.674;2023-03-03T02:15:00;97144.81;;;2.67;69.87
71917;BME280;59793;46.506;6.674;2023-03-03T02:17:26;97246.44;;;3.17;69.90
71917;BME280;59793;46.506;6.674;2023-03-03T02:23:01;97242.34;;;2.83;71.58
71917;BME280;59793;46.506;6.674;2023-03-03T02:25:43;97238.69;;;2.84;71.34
71917;BME280;59793;46.506;6.674;2023-03-03T02:28:10;97245.09;;;3.06;71.37
71917;BME280;59793;46.506;6.674;2023-03-03T02:30:37;97247.03;;;3.14;71.26
71917;BME280;59793;46.506;6.674;2023-03-03T02:33:03;97246.38;;;3.22;70.96
71917;BME280;59793;46.506;6.674;2023-03-03T02:35:32;97248.81;;;3.32;70.18
71917;BME280;59793;46.506;6.674;2023-03-03T02:38:05;97171.59;;;2.81;69.44
71917;BME280;59793;46.506;6.674;2023-03-03T02:40:35;97256.31;;;3.34;69.69
71917;BME280;59793;46.506;6.674;2023-03-03T02:43:04;97251.88;;;3.34;70.06
71917;BME280;59793;46.506;6.674;2023-03-03T02:45:30;97250.91;;;3.30;69.66
71917;BME280;59793;46.506;6.674;2023-03-03T02:47:55;97253.41;;;3.35;69.63
71917;BME280;59793;46.506;6.674;2023-03-03T02:50:21;97249.66;;;3.42;69.45
71917;BME280;59793;46.506;6.674;2023-03-03T02:52:46;97253.22;;;3.46;69.70
71917;BME280;59793;46.506;6.674;2023-03-03T02:55:11;97260.28;;;3.59;69.03
71917;BME280;59793;46.506;6.674;2023-03-03T02:57:37;97253.53;;;3.44;68.56
71917;BME280;59793;46.506;6.674;2023-03-03T03:00:03;97235.00;;;3.32;69.31
71917;BME280;59793;46.506;6.674;2023-03-03T03:02:28;97248.88;;;3.27;70.37
71917;BME280;59793;46.506;6.674;2023-03-03T03:04:53;97205.56;;;3.04;70.22
71917;BME280;59793;46.506;6.674;2023-03-03T03:07:19;97241.94;;;3.23;70.50
71917;BME280;59793;46.506;6.674;2023-03-03T03:09:44;97218.09;;;3.02;70.64
71917;BME280;59793;46.506;6.674;2023-03-03T03:12:10;97195.91;;;2.91;70.82
71917;BME280;59793;46.506;6.674;2023-03-03T03:14:36;97225.97;;;2.97;70.69
71917;BME280;59793;46.506;6.674;2023-03-03T03:17:02;97212.66;;;2.84;70.71
71917;BME280;59793;46.506;6.674;2023-03-03T03:19:29;97240.94;;;3.05;70.32
71917;BME280;59793;46.506;6.674;2023-03-03T03:21:54;97252.88;;;2.92;70.99
71917;BME280;59793;46.506;6.674;2023-03-03T03:24:19;97225.31;;;2.58;71.61
71917;BME280;59793;46.506;6.674;2023-03-03T03:26:45;97252.75;;;2.83;70.99
71917;BME280;59793;46.506;6.674;2023-03-03T03:29:10;97254.41;;;2.93;70.55
71917;BME280;59793;46.506;6.674;2023-03-03T03:31:35;97238.19;;;2.82;70.34
71917;BME280;59793;46.506;6.674;2023-03-03T03:34:02;97229.88;;;2.67;70.23
71917;BME280;59793;46.506;6.674;2023-03-03T03:36:27;97218.41;;;2.68;70.41
71917;BME280;59793;46.506;6.674;2023-03-03T03:38:53;97229.97;;;2.75;70.80
71917;BME280;59793;46.506;6.674;2023-03-03T03:41:18;97261.63;;;2.96;70.88
71917;BME280;59793;46.506;6.674;2023-03-03T03:43:43;97233.81;;;2.64;71.88
71917;BME280;59793;46.506;6.674;2023-03-03T03:46:09;97261.53;;;2.55;72.58
71917;BME280;59793;46.506;6.674;2023-03-03T03:48:35;97266.06;;;2.63;72.52
71917;BME280;59793;46.506;6.674;2023-03-03T03:51:00;97244.44;;;2.49;72.33
71917;BME280;59793;46.506;6.674;2023-03-03T03:53:26;97251.75;;;2.47;72.78
71917;BME280;59793;46.506;6.674;2023-03-03T03:55:51;97252.41;;;2.71;71.98
71917;BME280;59793;46.506;6.674;2023-03-03T03:58:17;97257.78;;;2.61;72.12
71917;BME280;59793;46.506;6.674;2023-03-03T04:00:44;97269.00;;;2.75;71.91
71917;BME280;59793;46.506;6.674;2023-03-03T04:03:10;97256.91;;;2.84;71.14
71917;BME280;59793;46.506;6.674;2023-03-03T04:05:36;97256.41;;;2.82;71.04
71917;BME280;59793;46.506;6.674;2023-03-03T04:08:02;97246.59;;;2.79;71.22
71917;BME280;59793;46.506;6.674;2023-03-03T04:10:27;97272.66;;;3.07;70.98
71917;BME280;59793;46.506;6.674;2023-03-03T04:12:53;97251.03;;;2.93;70.87
71917;BME280;59793;46.506;6.674;2023-03-03T04:15:18;97263.31;;;3.06;70.03
71917;BME280;59793;46.506;6.674;2023-03-03T04:17:44;97232.75;;;2.98;70.30
71917;BME280;59793;46.506;6.674;2023-03-03T04:20:12;97250.47;;;2.96;70.40
71917;BME280;59793;46.506;6.674;2023-03-03T04:22:38;97265.25;;;3.14;70.08
71917;BME280;59793;46.506;6.674;2023-03-03T04:25:04;97261.78;;;3.05;70.32
71917;BME280;59793;46.506;6.674;2023-03-03T04:27:34;97286.38;;;3.13;70.30
71917;BME280;59793;46.506;6.674;2023-03-03T04:30:00;97272.25;;;3.00;70.53
71917;BME280;59793;46.506;6.674;2023-03-03T04:32:25;97247.63;;;2.78;71.34
71917;BME280;59793;46.506;6.674;2023-03-03T04:34:51;97273.81;;;3.01;70.73
71917;BME280;59793;46.506;6.674;2023-03-03T04:37:17;97253.72;;;2.87;70.97
71917;BME280;59793;46.506;6.674;2023-03-03T04:39:42;97264.84;;;3.07;70.55
71917;BME280;59793;46.506;6.674;2023-03-03T04:42:07;97268.66;;;3.15;70.27
71917;BME280;59793;46.506;6.674;2023-03-03T04:44:33;97252.91;;;3.06;69.72
71917;BME280;59793;46.506;6.674;2023-03-03T04:46:58;97269.97;;;3.12;69.92
71917;BME280;59793;46.506;6.674;2023-03-03T04:49:24;97252.41;;;3.04;69.72
71917;BME280;59793;46.506;6.674;2023-03-03T04:51:49;97277.88;;;3.07;69.40
71917;BME280;59793;46.506;6.674;2023-03-03T04:54:14;97281.53;;;3.06;69.31
71917;BME280;59793;46.506;6.674;2023-03-03T04:56:40;97281.13;;;2.99;69.67
71917;BME280;59793;46.506;6.674;2023-03-03T04:59:05;97235.94;;;2.62;69.66
71917;BME280;59793;46.506;6.674;2023-03-03T05:01:30;97277.63;;;2.90;69.82
71917;BME280;59793;46.506;6.674;2023-03-03T05:03:56;97281.03;;;2.90;69.73
71917;BME280;59793;46.506;6.674;2023-03-03T05:06:21;97289.03;;;2.94;70.19
71917;BME280;59793;46.506;6.674;2023-03-03T05:08:46;97268.78;;;2.91;69.66
71917;BME280;59793;46.506;6.674;2023-03-03T05:11:12;97260.06;;;2.81;69.16
71917;BME280;59793;46.506;6.674;2023-03-03T05:13:38;97266.25;;;2.85;69.41
71917;BME280;59793;46.506;6.674;2023-03-03T05:16:04;97249.41;;;2.64;69.72
71917;BME280;59793;46.506;6.674;2023-03-03T05:18:29;97274.19;;;2.75;70.14
71917;BME280;59793;46.506;6.674;2023-03-03T05:20:55;97281.38;;;2.83;70.84
71917;BME280;59793;46.506;6.674;2023-03-03T05:23:21;97277.50;;;2.81;71.01
71917;BME280;59793;46.506;6.674;2023-03-03T05:25:47;97255.97;;;2.61;70.54
71917;BME280;59793;46.506;6.674;2023-03-03T05:28:12;97248.31;;;2.51;70.80
71917;BME280;59793;46.506;6.674;2023-03-03T05:30:38;97282.22;;;2.79;70.77
71917;BME280;59793;46.506;6.674;2023-03-03T05:33:05;97280.31;;;2.84;70.97
71917;BME280;59793;46.506;6.674;2023-03-03T05:35:31;97272.81;;;2.83;70.35
71917;BME280;59793;46.506;6.674;2023-03-03T05:37:56;97254.25;;;2.71;70.38
71917;BME280;59793;46.506;6.674;2023-03-03T05:40:25;97239.56;;;2.61;70.07
71917;BME280;59793;46.506;6.674;2023-03-03T05:42:51;97264.13;;;2.87;70.02
71917;BME280;59793;46.506;6.674;2023-03-03T05:45:17;97263.31;;;2.73;70.47
71917;BME280;59793;46.506;6.674;2023-03-03T05:47:46;97282.16;;;2.84;70.65
71917;BME280;59793;46.506;6.674;2023-03-03T05:50:11;97263.22;;;2.78;70.95
71917;BME280;59793;46.506;6.674;2023-03-03T05:52:37;97284.69;;;3.03;70.52
71917;BME280;59793;46.506;6.674;2023-03-03T05:55:02;97282.66;;;3.00;69.84
71917;BME280;59793;46.506;6.674;2023-03-03T05:57:28;97270.19;;;2.83;70.08
71917;BME280;59793;46.506;6.674;2023-03-03T05:59:53;97262.91;;;2.66;70.82
71917;BME280;59793;46.506;6.674;2023-03-03T06:02:19;97255.41;;;2.46;71.36
71917;BME280;59793;46.506;6.674;2023-03-03T06:04:44;97242.75;;;2.39;71.71
71917;BME280;59793;46.506;6.674;2023-03-03T06:07:10;97285.81;;;2.64;71.65
71917;BME280;59793;46.506;6.674;2023-03-03T06:09:35;97271.69;;;2.70;70.90
71917;BME280;59793;46.506;6.674;2023-03-03T06:12:01;97288.69;;;2.81;71.30
71917;BME280;59793;46.506;6.674;2023-03-03T06:14:26;97241.69;;;2.59;71.39
71917;BME280;59793;46.506;6.674;2023-03-03T06:16:51;97289.28;;;2.92;71.18
71917;BME280;59793;46.506;6.674;2023-03-03T06:19:17;97264.94;;;2.69;71.26
71917;BME280;59793;46.506;6.674;2023-03-03T06:21:42;97300.50;;;2.74;71.62
71917;BME280;59793;46.506;6.674;2023-03-03T06:24:08;97298.81;;;2.64;71.95
71917;BME280;59793;46.506;6.674;2023-03-03T06:26:33;97280.97;;;2.57;71.88
71917;BME280;59793;46.506;6.674;2023-03-03T06:29:00;97243.88;;;2.33;71.94
71917;BME280;59793;46.506;6.674;2023-03-03T06:31:26;97301.00;;;2.57;72.57
71917;BME280;59793;46.506;6.674;2023-03-03T06:33:52;97256.97;;;2.28;72.96
71917;BME280;59793;46.506;6.674;2023-03-03T06:36:18;97301.34;;;2.50;73.68
71917;BME280;59793;46.506;6.674;2023-03-03T06:38:43;97304.88;;;2.59;73.37
71917;BME280;59793;46.506;6.674;2023-03-03T06:41:09;97316.31;;;2.77;73.12
71917;BME280;59793;46.506;6.674;2023-03-03T06:43:35;97281.69;;;2.44;72.90
71917;BME280;59793;46.506;6.674;2023-03-03T06:46:02;97330.72;;;2.51;73.38
71917;BME280;59793;46.506;6.674;2023-03-03T06:48:28;97310.69;;;2.32;73.89
71917;BME280;59793;46.506;6.674;2023-03-03T06:50:53;97299.59;;;2.27;74.16
71917;BME280;59793;46.506;6.674;2023-03-03T06:53:19;97309.59;;;2.38;74.62
71917;BME280;59793;46.506;6.674;2023-03-03T06:55:44;97314.31;;;2.55;74.63
71917;BME280;59793;46.506;6.674;2023-03-03T06:58:18;97313.09;;;2.67;73.88
71917;BME280;59793;46.506;6.674;2023-03-03T07:00:53;97330.19;;;2.73;73.67
71917;BME280;59793;46.506;6.674;2023-03-03T07:03:32;97342.09;;;2.93;73.51
71917;BME280;59793;46.506;6.674;2023-03-03T07:05:59;97315.69;;;2.67;73.37
71917;BME280;59793;46.506;6.674;2023-03-03T07:08:25;97304.03;;;2.64;73.21
71917;BME280;59793;46.506;6.674;2023-03-03T07:10:54;97351.09;;;3.00;73.30
71917;BME280;59793;46.506;6.674;2023-03-03T07:13:25;97312.25;;;2.71;73.29
71917;BME280;59793;46.506;6.674;2023-03-03T07:15:52;97356.19;;;2.92;73.16
71917;BME280;59793;46.506;6.674;2023-03-03T07:18:35;97359.91;;;2.85;73.47
71917;BME280;59793;46.506;6.674;2023-03-03T07:21:17;97361.72;;;2.85;73.72
71917;BME280;59793;46.506;6.674;2023-03-03T07:23:46;97340.72;;;2.81;73.86
71917;BME280;59793;46.506;6.674;2023-03-03T07:26:13;97360.59;;;3.10;73.10
71917;BME280;59793;46.506;6.674;2023-03-03T07:28:41;97360.84;;;3.27;72.52
71917;BME280;59793;46.506;6.674;2023-03-03T07:33:57;97347.59;;;3.70;69.40
71917;BME280;59793;46.506;6.674;2023-03-03T07:36:34;97359.50;;;4.04;68.14
71917;BME280;59793;46.506;6.674;2023-03-03T07:39:02;97368.19;;;4.13;67.36
71917;BME280;59793;46.506;6.674;2023-03-03T07:41:30;97362.41;;;4.02;67.13
71917;BME280;59793;46.506;6.674;2023-03-03T07:46:56;97366.19;;;4.10;68.40
71917;BME280;59793;46.506;6.674;2023-03-03T07:49:34;97367.34;;;4.18;67.53
71917;BME280;59793;46.506;6.674;2023-03-03T07:52:01;97372.53;;;4.18;67.99
71917;BME280;59793;46.506;6.674;2023-03-03T07:54:44;97363.34;;;4.20;68.17
71917;BME280;59793;46.506;6.674;2023-03-03T07:59:37;97363.28;;;4.25;68.12
71917;BME280;59793;46.506;6.674;2023-03-03T08:02:10;97335.28;;;4.17;68.14
71917;BME280;59793;46.506;6.674;2023-03-03T08:04:47;97358.59;;;4.50;67.66
71917;BME280;59793;46.506;6.674;2023-03-03T08:07:22;97302.78;;;4.37;66.35
71917;BME280;59793;46.506;6.674;2023-03-03T08:12:22;97367.72;;;4.75;67.06
71917;BME280;59793;46.506;6.674;2023-03-03T08:14:51;97354.94;;;4.73;66.91
71917;BME280;59793;46.506;6.674;2023-03-03T08:17:20;97332.47;;;4.64;66.79
71917;BME280;59793;46.506;6.674;2023-03-03T08:19:47;97361.03;;;4.83;66.84
71917;BME280;59793;46.506;6.674;2023-03-03T08:22:24;97363.19;;;5.03;65.97
71917;BME280;59793;46.506;6.674;2023-03-03T08:24:54;97370.66;;;5.18;65.82
71917;BME280;59793;46.506;6.674;2023-03-03T08:27:19;97350.31;;;5.07;66.44
71917;BME280;59793;46.506;6.674;2023-03-03T08:29:45;97364.75;;;5.26;66.53
71917;BME280;59793;46.506;6.674;2023-03-03T08:32:10;97375.59;;;5.42;65.31
71917;BME280;59793;46.506;6.674;2023-03-03T08:34:36;97358.72;;;5.26;65.88
71917;BME280;59793;46.506;6.674;2023-03-03T08:37:01;97356.97;;;5.44;66.06
71917;BME280;59793;46.506;6.674;2023-03-03T08:39:27;97343.13;;;5.35;64.94
71917;BME280;59793;46.506;6.674;2023-03-03T08:41:52;97372.38;;;5.45;65.24
71917;BME280;59793;46.506;6.674;2023-03-03T08:44:17;97339.09;;;5.06;66.43
71917;BME280;59793;46.506;6.674;2023-03-03T08:46:44;97345.00;;;5.43;66.68
71917;BME280;59793;46.506;6.674;2023-03-03T08:49:09;97356.81;;;6.03;64.20
71917;BME280;59793;46.506;6.674;2023-03-03T08:51:35;97332.19;;;5.95;62.66
71917;BME280;59793;46.506;6.674;2023-03-03T08:54:00;97346.22;;;6.08;64.86
71917;BME280;59793;46.506;6.674;2023-03-03T08:56:26;97368.00;;;6.34;62.63
71917;BME280;59793;46.506;6.674;2023-03-03T08:58:51;97373.22;;;6.43;62.53
71917;BME280;59793;46.506;6.674;2023-03-03T09:01:17;97361.72;;;6.61;62.19
71917;BME280;59793;46.506;6.674;2023-03-03T09:03:43;97354.34;;;6.55;61.35
71917;BME280;59793;46.506;6.674;2023-03-03T09:06:09;97371.59;;;6.64;60.35
71917;BME280;59793;46.506;6.674;2023-03-03T09:08:36;97369.84;;;6.42;62.49
71917;BME280;59793;46.506;6.674;2023-03-03T09:11:01;97347.06;;;6.34;61.73
71917;BME280;59793;46.506;6.674;2023-03-03T09:13:29;97293.75;;;6.04;61.41
71917;BME280;59793;46.506;6.674;2023-03-03T09:15:55;97384.38;;;6.75;60.90
71917;BME280;59793;46.506;6.674;2023-03-03T09:18:31;97382.53;;;6.66;61.38
71917;BME280;59793;46.506;6.674;2023-03-03T09:20:59;97365.25;;;6.48;60.94
71917;BME280;59793;46.506;6.674;2023-03-03T09:26:31;97374.06;;;6.87;60.73
71917;BME280;59793;46.506;6.674;2023-03-03T09:31:46;97373.44;;;6.73;61.74
71917;BME280;59793;46.506;6.674;2023-03-03T09:34:21;97386.81;;;6.62;60.86
71917;BME280;59793;46.506;6.674;2023-03-03T09:36:48;97388.75;;;6.22;62.10
71917;BME280;59793;46.506;6.674;2023-03-03T09:39:18;97386.34;;;6.03;63.32
71917;BME280;59793;46.506;6.674;2023-03-03T10:04:02;97387.22;;;8.15;57.89
71917;BME280;59793;46.506;6.674;2023-03-03T10:06:44;97382.16;;;8.02;56.56
71917;BME280;59793;46.506;6.674;2023-03-03T10:11:49;97387.13;;;8.33;57.22
71917;BME280;59793;46.506;6.674;2023-03-03T10:20:00;97382.31;;;9.27;53.13
71917;BME280;59793;46.506;6.674;2023-03-03T10:22:42;97374.22;;;9.66;52.56
71917;BME280;59793;46.506;6.674;2023-03-03T10:44:55;97370.69;;;11.40;46.80
71917;BME280;59793;46.506;6.674;2023-03-03T10:47:38;97379.59;;;11.64;45.69
71917;BME280;59793;46.506;6.674;2023-03-03T10:52:30;97383.16;;;11.71;46.69
71917;BME280;59793;46.506;6.674;2023-03-03T10:55:20;97385.44;;;11.85;46.51
71917;BME280;59793;46.506;6.674;2023-03-03T10:58:20;97392.59;;;11.85;47.03
71917;BME280;59793;46.506;6.674;2023-03-03T11:12:06;97390.72;;;10.48;47.83
71917;BME280;59793;46.506;6.674;2023-03-03T11:15:00;97376.03;;;9.41;50.76
71917;BME280;59793;46.506;6.674;2023-03-03T11:18:09;97370.19;;;9.02;52.40
71917;BME280;59793;46.506;6.674;2023-03-03T11:20:30;97393.63;;;9.61;52.73
71917;BME280;59793;46.506;6.674;2023-03-03T11:23:15;97383.25;;;9.44;51.29
71917;BME280;59793;46.506;6.674;2023-03-03T11:25:48;97399.00;;;9.10;52.45
71917;BME280;59793;46.506;6.674;2023-03-03T11:29:08;97390.16;;;9.48;51.14
71917;BME280;59793;46.506;6.674;2023-03-03T11:36:42;97383.47;;;10.45;50.37
71917;BME280;59793;46.506;6.674;2023-03-03T11:39:12;97381.47;;;10.67;48.95
71917;BME280;59793;46.506;6.674;2023-03-03T11:41:41;97368.69;;;10.93;49.39
71917;BME280;59793;46.506;6.674;2023-03-03T11:44:37;97352.19;;;10.96;47.34
71917;BME280;59793;46.506;6.674;2023-03-03T11:47:17;97324.41;;;10.59;48.19
71917;BME280;59793;46.506;6.674;2023-03-03T11:50:02;97323.69;;;10.46;48.69
71917;BME280;59793;46.506;6.674;2023-03-03T11:52:37;97368.41;;;11.11;47.68
71917;BME280;59793;46.506;6.674;2023-03-03T11:57:39;97348.84;;;11.56;46.46
71917;BME280;59793;46.506;6.674;2023-03-03T12:05:55;97344.66;;;12.34;44.65
71917;BME280;59793;46.506;6.674;2023-03-03T12:14:08;97323.50;;;11.23;48.18
71917;BME280;59793;46.506;6.674;2023-03-03T12:22:10;97300.88;;;8.23;54.42
71917;BME280;59793;46.506;6.674;2023-03-03T12:27:26;97335.38;;;8.33;54.76
71917;BME280;59793;46.506;6.674;2023-03-03T12:38:32;97343.66;;;7.38;59.29
71917;BME280;59793;46.506;6.674;2023-03-03T12:43:51;97330.25;;;7.31;59.51
71917;BME280;59793;46.506;6.674;2023-03-03T12:46:32;97343.56;;;7.73;57.83
71917;BME280;59793;46.506;6.674;2023-03-03T12:49:00;97335.59;;;7.99;57.18
71917;BME280;59793;46.506;6.674;2023-03-03T12:51:42;97349.41;;;7.70;58.58
71917;BME280;59793;46.506;6.674;2023-03-03T12:56:44;97343.66;;;7.38;59.76
71917;BME280;59793;46.506;6.674;2023-03-03T12:59:24;97337.06;;;7.32;59.87
71917;BME280;59793;46.506;6.674;2023-03-03T13:04:45;97347.72;;;7.09;60.42
71917;BME280;59793;46.506;6.674;2023-03-03T13:10:04;97344.81;;;6.93;62.13
71917;BME280;59793;46.506;6.674;2023-03-03T13:12:44;97346.16;;;7.08;61.82
71917;BME280;59793;46.506;6.674;2023-03-03T13:15:20;97318.44;;;7.07;61.71
71917;BME280;59793;46.506;6.674;2023-03-03T13:20:46;97328.69;;;7.47;59.78
71917;BME280;59793;46.506;6.674;2023-03-03T13:26:35;97353.56;;;7.15;61.23
71917;BME280;59793;46.506;6.674;2023-03-03T13:29:25;97352.47;;;7.16;61.74
71917;BME280;59793;46.506;6.674;2023-03-03T13:34:48;97350.31;;;8.21;58.52
71917;BME280;59793;46.506;6.674;2023-03-03T13:37:26;97326.25;;;8.48;57.46
71917;BME280;59793;46.506;6.674;2023-03-03T13:42:37;97355.06;;;8.99;55.20
71917;BME280;59793;46.506;6.674;2023-03-03T13:45:39;97355.44;;;8.68;55.56
71917;BME280;59793;46.506;6.674;2023-03-03T13:51:45;97323.34;;;9.62;53.20
71917;BME280;59793;46.506;6.674;2023-03-03T14:09:07;97333.97;;;8.86;54.97
71917;BME280;59793;46.506;6.674;2023-03-03T14:12:08;97330.53;;;9.07;53.99
71917;BME280;59793;46.506;6.674;2023-03-03T14:17:03;97336.22;;;8.76;55.25
71917;BME280;59793;46.506;6.674;2023-03-03T14:19:46;97320.06;;;8.44;55.96
71917;BME280;59793;46.506;6.674;2023-03-03T14:25:23;97319.16;;;8.40;56.69
71917;BME280;59793;46.506;6.674;2023-03-03T14:28:24;97328.31;;;8.34;56.38
71917;BME280;59793;46.506;6.674;2023-03-03T14:30:55;97301.28;;;8.04;57.32
71917;BME280;59793;46.506;6.674;2023-03-03T14:33:25;97321.03;;;8.10;57.26
71917;BME280;59793;46.506;6.674;2023-03-03T14:38:34;97305.22;;;8.48;55.83
71917;BME280;59793;46.506;6.674;2023-03-03T14:41:11;97320.31;;;8.51;56.58
71917;BME280;59793;46.506;6.674;2023-03-03T14:43:42;97307.94;;;8.01;57.17
71917;BME280;59793;46.506;6.674;2023-03-03T14:46:37;97327.66;;;8.07;57.71
71917;BME280;59793;46.506;6.674;2023-03-03T14:49:12;97311.47;;;8.05;57.39
71917;BME280;59793;46.506;6.674;2023-03-03T14:51:42;97316.16;;;7.91;57.88
71917;BME280;59793;46.506;6.674;2023-03-03T14:54:37;97321.38;;;7.61;58.58
71917;BME280;59793;46.506;6.674;2023-03-03T14:57:11;97318.44;;;7.72;58.09
71917;BME280;59793;46.506;6.674;2023-03-03T14:59:39;97300.22;;;7.66;58.17
71917;BME280;59793;46.506;6.674;2023-03-03T15:04:46;97324.22;;;8.15;57.06
71917;BME280;59793;46.506;6.674;2023-03-03T15:09:51;97289.09;;;8.37;56.85
71917;BME280;59793;46.506;6.674;2023-03-03T15:17:38;97292.25;;;8.85;55.12
71917;BME280;59793;46.506;6.674;2023-03-03T15:20:39;97314.78;;;9.07;54.47
71917;BME280;59793;46.506;6.674;2023-03-03T15:23:17;97314.31;;;8.72;55.43
71917;BME280;59793;46.506;6.674;2023-03-03T15:31:18;97302.84;;;9.09;53.68
71917;BME280;59793;46.506;6.674;2023-03-03T15:42:23;97319.03;;;8.78;54.80
71917;BME280;59793;46.506;6.674;2023-03-03T15:52:42;97327.31;;;8.68;55.43
71917;BME280;59793;46.506;6.674;2023-03-03T16:00:35;97329.16;;;8.68;55.39
71917;BME280;59793;46.506;6.674;2023-03-03T16:03:12;97321.97;;;9.31;54.02
71917;BME280;59793;46.506;6.674;2023-03-03T16:13:58;97342.88;;;9.73;52.08
71917;BME280;59793;46.506;6.674;2023-03-03T16:32:54;97341.19;;;8.48;55.79
71917;BME280;59793;46.506;6.674;2023-03-03T16:35:28;97355.31;;;8.64;55.88
71917;BME280;59793;46.506;6.674;2023-03-03T16:37:59;97354.09;;;8.32;56.71
71917;BME280;59793;46.506;6.674;2023-03-03T16:40:44;97311.97;;;7.99;56.80
71917;BME280;59793;46.506;6.674;2023-03-03T16:46:10;97346.69;;;7.57;58.84
71917;BME280;59793;46.506;6.674;2023-03-03T16:48:44;97364.91;;;7.45;59.19
71917;BME280;59793;46.506;6.674;2023-03-03T16:54:10;97344.78;;;7.11;60.21
71917;BME280;59793;46.506;6.674;2023-03-03T16:56:45;97359.75;;;7.10;60.71
71917;BME280;59793;46.506;6.674;2023-03-03T16:59:34;97377.59;;;7.17;60.76
71917;BME280;59793;46.506;6.674;2023-03-03T17:02:17;97350.03;;;7.02;61.09
71917;BME280;59793;46.506;6.674;2023-03-03T17:04:50;97338.50;;;6.86;61.53
71917;BME280;59793;46.506;6.674;2023-03-03T17:13:19;97385.78;;;6.98;61.54
71917;BME280;59793;46.506;6.674;2023-03-03T17:16:05;97388.09;;;6.82;62.39
71917;BME280;59793;46.506;6.674;2023-03-03T17:29:43;97403.34;;;6.80;61.43
71917;BME280;59793;46.506;6.674;2023-03-03T17:32:46;97400.25;;;6.95;61.34
71917;BME280;59793;46.506;6.674;2023-03-03T17:41:10;97409.81;;;7.09;61.17
71917;BME280;59793;46.506;6.674;2023-03-03T17:49:10;97409.03;;;7.08;61.67
71917;BME280;59793;46.506;6.674;2023-03-03T17:54:53;97419.50;;;6.91;62.38
71917;BME280;59793;46.506;6.674;2023-03-03T18:06:34;97429.66;;;6.75;63.50
71917;BME280;59793;46.506;6.674;2023-03-03T18:09:28;97429.78;;;6.61;64.08
71917;BME280;59793;46.506;6.674;2023-03-03T18:21:16;97450.31;;;6.77;64.03